Flight Track Log - Related Links

Times and Time Zones

All times are in EDT time to prevent confusion due to time zone crossing. See the AAL2137 flight status page for this flight to view local times or setup timezone preferences in your user account.

Time Position Orientation Groundspeed Altitude Reporting Facility
EDT Latitude Longitude Course Direction KTS MPH feet Rate Location/Type
Fri 12:54:40 PM 41.9250 -72.7108 236° Southwest 157 181 1,300  Level Boston Center
Fri 12:55:50 PM 41.9247 -72.7806 270° West 202 232 2,800 2,031 Climbing Boston Center
Fri 12:56:00 PM 41.9167 -72.9395 270° West  Level FlightAware Approximate
Fri 12:56:50 PM 41.9203 -72.8669 266° West 220 253 5,700  Level Boston Center
Fri 12:57:00 PM 41.9127 -73.0683 264° West  Level FlightAware Approximate
Fri 12:58:00 PM 41.9028 -73.1967 264° West  Level FlightAware Approximate
Fri 12:59:00 PM 41.8894 -73.3213 236° Southwest  Level FlightAware Approximate
Fri 01:02:27 PM 41.8280 -73.4710 266° West 343 395 19,000  Level FlightAware ADS-B
Fri 01:03:07 PM 41.8060 -73.5550 251° West 362 417 20,400 2,047 Climbing FlightAware ADS-B
Fri 01:03:52 PM 41.7940 -73.6550 261° West 370 426 21,900 1,976 Climbing FlightAware ADS-B
Fri 01:04:32 PM 41.7830 -73.7460 261° West 377 434 23,200 1,650 Climbing FlightAware ADS-B
Fri 01:05:12 PM 41.7710 -73.8340 260° West 385 443 24,100 960 Climbing FlightAware ADS-B
Fri 01:06:12 PM 41.7510 -73.9750 259° West 394 453 24,800 1,958 Climbing FlightAware ADS-B
Fri 01:06:47 PM 41.7119 -74.0503 235° Southwest 380 437 27,200 3,000 Climbing FlightAware ADS-B
Fri 01:07:20 PM 41.6613 -74.0872 209° Southwest 379 436 28,200 1,754 Climbing FlightAware ADS-B
Fri 01:07:52 PM 41.6142 -74.1279 213° Southwest 378 435 29,100 1,619 Climbing FlightAware ADS-B
Fri 01:08:23 PM 41.5695 -74.1678 214° Southwest 377 434 29,900 1,452 Climbing FlightAware ADS-B
Fri 01:08:54 PM 41.5253 -74.2070 214° Southwest 378 435 30,600 1,279 Climbing FlightAware ADS-B
Fri 01:09:24 PM 41.4809 -74.2452 213° Southwest 381 438 31,200 1,082 Climbing FlightAware ADS-B
Fri 01:09:55 PM 41.4346 -74.2846 213° Southwest 385 443 31,700 870 Climbing FlightAware ADS-B
Fri 01:10:33 PM 41.3761 -74.3344 213° Southwest 396 456 32,200 870 Climbing FlightAware ADS-B
Fri 01:11:04 PM 41.3286 -74.3749 213° Southwest 400 460 32,700 984 Climbing FlightAware ADS-B
Fri 01:11:34 PM 41.2815 -74.4149 213° Southwest 400 460 33,200 1,000 Climbing FlightAware ADS-B
Fri 01:12:04 PM 41.2342 -74.4553 213° Southwest 404 465 33,700 984 Climbing FlightAware ADS-B
Fri 01:12:35 PM 41.1854 -74.4970 213° Southwest 406 467 34,200 882 Climbing FlightAware ADS-B
Fri 01:13:12 PM 41.1260 -74.5471 212° Southwest 409 471 34,700 794 Climbing FlightAware ADS-B
Fri 01:13:43 PM 41.0763 -74.5889 212° Southwest 410 472 35,100 1,065 Climbing FlightAware ADS-B
Fri 01:14:14 PM 41.0279 -74.6293 212° Southwest 405 466 35,800 871 Climbing FlightAware ADS-B
Fri 01:14:45 PM 40.9789 -74.6705 212° Southwest 403 464 36,000 188 Climbing FlightAware ADS-B
Fri 01:15:18 PM 40.9273 -74.7140 212° Southwest 402 463 36,000  Level FlightAware ADS-B
Fri 01:15:49 PM 40.8779 -74.7554 212° Southwest 401 461 36,000  Level FlightAware ADS-B
Fri 01:16:20 PM 40.8294 -74.7961 212° Southwest 400 460 36,000  Level FlightAware ADS-B
Fri 01:16:27 PM 40.8199 -74.8049 215° Southwest 399 459 36,000  Level FlightAware ADS-B
Fri 01:16:39 PM 40.8024 -74.8253 221° Southwest 398 458 36,000  Level FlightAware ADS-B
Fri 01:16:45 PM 40.7952 -74.8356 227° Southwest 398 458 36,000  Level FlightAware ADS-B
Fri 01:16:49 PM 40.7903 -74.8434 230° Southwest 398 458 36,000  Level FlightAware ADS-B
Fri 01:16:57 PM 40.7819 -74.8590 235° Southwest 398 458 36,000  Level FlightAware ADS-B
Fri 01:17:28 PM 40.7534 -74.9216 239° Southwest 397 457 36,000  Level FlightAware ADS-B
Fri 01:17:59 PM 40.7237 -74.9871 239° Southwest 397 457 36,000  Level FlightAware ADS-B
Fri 01:18:29 PM 40.6951 -75.0499 239° Southwest 396 456 36,000  Level FlightAware ADS-B
Fri 01:19:01 PM 40.6658 -75.1146 239° Southwest 395 455 36,000  Level FlightAware ADS-B
Fri 01:19:31 PM 40.6373 -75.1773 239° Southwest 395 455 36,000  Level FlightAware ADS-B
Fri 01:20:01 PM 40.6090 -75.2394 239° Southwest 395 455 36,000  Level FlightAware ADS-B
Fri 01:20:33 PM 40.5791 -75.3048 239° Southwest 395 455 36,000  Level FlightAware ADS-B
Fri 01:21:04 PM 40.5504 -75.3673 239° Southwest 396 456 36,000  Level FlightAware ADS-B
Fri 01:21:35 PM 40.5208 -75.4316 239° Southwest 394 453 36,000  Level FlightAware ADS-B
Fri 01:22:05 PM 40.4925 -75.4932 239° Southwest 393 452 36,000  Level FlightAware ADS-B
Fri 01:22:36 PM 40.4633 -75.5565 239° Southwest 393 452 36,000  Level FlightAware ADS-B
Fri 01:23:07 PM 40.4344 -75.6190 239° Southwest 391 450 36,000  Level FlightAware ADS-B
Fri 01:23:38 PM 40.4057 -75.6811 239° Southwest 389 448 36,000  Level FlightAware ADS-B
Fri 01:24:09 PM 40.3769 -75.7432 239° Southwest 389 448 36,000  Level FlightAware ADS-B
Fri 01:24:40 PM 40.3475 -75.8060 238° Southwest 391 450 36,000  Level FlightAware ADS-B
Fri 01:25:11 PM 40.3184 -75.8683 239° Southwest 392 451 36,000  Level FlightAware ADS-B
Fri 01:25:42 PM 40.2894 -75.9307 239° Southwest 390 449 36,000  Level FlightAware ADS-B
Fri 01:26:14 PM 40.2594 -75.9951 239° Southwest 391 450 36,000  Level FlightAware ADS-B
Fri 01:26:44 PM 40.2310 -76.0558 239° Southwest 391 450 36,000  Level FlightAware ADS-B
Fri 01:27:15 PM 40.2019 -76.1178 238° Southwest 392 451 36,000  Level FlightAware ADS-B
Fri 01:27:46 PM 40.1718 -76.1814 238° Southwest 394 453 36,000  Level FlightAware ADS-B
Fri 01:28:16 PM 40.1432 -76.2419 238° Southwest 393 452 36,000  Level FlightAware ADS-B
Fri 01:28:55 PM 40.1068 -76.3195 238° Southwest 393 452 36,000  Level FlightAware ADS-B
Fri 01:29:25 PM 40.0782 -76.3815 239° Southwest 393 452 36,000  Level FlightAware ADS-B
Fri 01:29:56 PM 40.0497 -76.4438 239° Southwest 392 451 36,000  Level FlightAware ADS-B
Fri 01:30:26 PM 40.0216 -76.5048 239° Southwest 391 450 36,000  Level FlightAware ADS-B
Fri 01:31:00 PM 39.9902 -76.5722 239° Southwest 389 448 36,000  Level FlightAware ADS-B
Fri 01:31:34 PM 39.9579 -76.6417 239° Southwest 389 448 36,000  Level FlightAware ADS-B
Fri 01:32:08 PM 39.9272 -76.7077 239° Southwest 386 444 36,000  Level FlightAware ADS-B
Fri 01:32:45 PM 39.8933 -76.7803 239° Southwest 383 441 36,000  Level FlightAware ADS-B
Fri 01:33:15 PM 39.8654 -76.8396 239° Southwest 383 441 36,000  Level FlightAware ADS-B
Fri 01:34:00 PM 39.8234 -76.9293 239° Southwest 383 441 36,000  Level FlightAware ADS-B
Fri 01:34:32 PM 39.7950 -76.9897 239° Southwest 376 433 36,000  Level FlightAware ADS-B
Fri 01:35:02 PM 39.7679 -77.0477 239° Southwest 371 427 36,000  Level FlightAware ADS-B
Fri 01:35:35 PM 39.7388 -77.1094 238° Southwest 369 425 36,000  Level FlightAware ADS-B
Fri 01:36:05 PM 39.7115 -77.1670 238° Southwest 371 427 36,000  Level FlightAware ADS-B
Fri 01:36:37 PM 39.6828 -77.2274 238° Southwest 370 426 36,000  Level FlightAware ADS-B
Fri 01:37:10 PM 39.6533 -77.2896 238° Southwest 371 427 36,000  Level FlightAware ADS-B
Fri 01:37:43 PM 39.6236 -77.3522 238° Southwest 369 425 36,000 500 Level FlightAware ADS-B
Fri 01:38:22 PM 39.5891 -77.4245 238° Southwest 368 423 36,600 1,068 Climbing FlightAware ADS-B
Fri 01:38:56 PM 39.5589 -77.4879 238° Southwest 357 411 37,300 1,091 Climbing FlightAware ADS-B
Fri 01:39:28 PM 39.5314 -77.5453 238° Southwest 354 407 37,800 646 Climbing FlightAware ADS-B
Fri 01:40:01 PM 39.5031 -77.6042 238° Southwest 354 407 38,000 136 Climbing FlightAware ADS-B
Fri 01:40:56 PM 39.4560 -77.7023 238° Southwest 354 407 38,000  Level FlightAware ADS-B
Fri 01:41:36 PM 39.4209 -77.7751 238° Southwest 356 410 38,000  Level FlightAware ADS-B
Fri 01:42:14 PM 39.3882 -77.8433 238° Southwest 354 407 38,000  Level FlightAware ADS-B
Fri 01:42:26 PM 39.3790 -77.8653 242° Southwest 352 405 38,000  Level FlightAware ADS-B
Fri 01:42:56 PM 39.3568 -77.9213 243° Southwest 350 403 38,000  Level FlightAware ADS-B
Fri 01:44:02 PM 39.3120 -78.0340 243° Southwest 350 403 38,000  Level FlightAware ADS-B
Fri 01:44:42 PM 39.2820 -78.1080 242° Southwest 347 399 38,000  Level FlightAware ADS-B
Fri 01:45:27 PM 39.2500 -78.1890 243° Southwest 343 395 38,000  Level FlightAware ADS-B
Fri 01:46:07 PM 39.2220 -78.2580 242° Southwest 341 392 38,000  Level FlightAware ADS-B
Fri 01:46:52 PM 39.1910 -78.3370 243° Southwest 340 391 38,000  Level FlightAware ADS-B
Fri 01:47:32 PM 39.1610 -78.4120 243° Southwest 338 389 38,000  Level FlightAware ADS-B
Fri 01:48:12 PM 39.1330 -78.4810 242° Southwest 336 387 38,000  Level FlightAware ADS-B
Fri 01:48:57 PM 39.1020 -78.5570 242° Southwest 334 384 38,000  Level FlightAware ADS-B
Fri 01:49:37 PM 39.0740 -78.6260 242° Southwest 335 386 38,000  Level FlightAware ADS-B
Fri 01:50:22 PM 39.0410 -78.7080 243° Southwest 332 382 38,000  Level FlightAware ADS-B
Fri 01:51:02 PM 39.0120 -78.7800 243° Southwest 331 381 38,000  Level FlightAware ADS-B
Fri 01:51:42 PM 38.9860 -78.8430 242° Southwest 331 381 38,000  Level FlightAware ADS-B
Fri 01:52:37 PM 38.9430 -78.9480 242° Southwest 330 380 38,000  Level FlightAware ADS-B
Fri 01:53:22 PM 38.9120 -79.0240 242° Southwest 329 379 38,000  Level FlightAware ADS-B
Fri 01:53:57 PM 38.8860 -79.0860 242° Southwest 330 380 38,000  Level FlightAware ADS-B
Fri 01:54:37 PM 38.8560 -79.1610 243° Southwest 327 376 38,000  Level FlightAware ADS-B
Fri 01:55:27 PM 38.8300 -79.2520 250° West 331 381 38,000  Level FlightAware ADS-B
Fri 01:56:12 PM 38.8160 -79.3350 258° West 331 381 38,000  Level FlightAware ADS-B
Fri 01:56:52 PM 38.8020 -79.4120 257° West 333 383 38,000  Level FlightAware ADS-B
Fri 01:57:47 PM 38.7830 -79.5180 257° West 344 396 38,000  Level FlightAware ADS-B
Fri 01:59:37 PM 38.7640 -79.6200 257° West 345 397 38,000  Level FlightAware ADS-B
Fri 02:03:17 PM 38.7640 -79.6160 90° East 345 397 38,000  Level FlightAware ADS-B
Fri 02:03:57 PM 38.7510 -79.6840 256° West 345 397 38,000  Level FlightAware ADS-B
Fri 02:04:42 PM 38.7580 -79.6500 75° East 345 397 38,000  Level FlightAware ADS-B
Fri 02:05:27 PM 38.6130 -80.4280 257° West 344 396 38,000  Level FlightAware ADS-B
Fri 02:06:12 PM 38.5960 -80.5200 257° West 345 397 38,000  Level FlightAware ADS-B
Fri 02:06:52 PM 38.5830 -80.5870 256° West 345 397 38,000  Level FlightAware ADS-B
Fri 02:07:32 PM 38.5700 -80.6550 256° West 345 397 38,000  Level FlightAware ADS-B
Fri 02:08:22 PM 38.5530 -80.7390 256° West 345 397 38,000  Level FlightAware ADS-B
Fri 02:09:02 PM 38.5290 -80.8670 257° West 349 402 38,000  Level FlightAware ADS-B
Fri 02:09:47 PM 38.5120 -80.9550 256° West 347 399 38,000  Level FlightAware ADS-B
Fri 02:10:22 PM 38.4980 -81.0250 256° West 346 398 38,000  Level FlightAware ADS-B
Fri 02:11:07 PM 38.4810 -81.1130 256° West 343 395 38,000  Level FlightAware ADS-B
Fri 02:11:47 PM 38.4660 -81.1900 256° West 340 391 38,000  Level FlightAware ADS-B
Fri 02:12:32 PM 38.4480 -81.2790 256° West 338 389 38,000  Level FlightAware ADS-B
Fri 02:13:17 PM 38.4310 -81.3640 256° West 337 388 38,000  Level FlightAware ADS-B
Fri 02:13:57 PM 38.4160 -81.4400 256° West 335 386 38,000  Level FlightAware ADS-B
Fri 02:14:37 PM 38.4010 -81.5170 256° West 335 386 38,000  Level FlightAware ADS-B
Fri 02:14:50 PM 38.3998 -81.5485 267° West 345 397 38,000  Level FlightAware ADS-B
Fri 02:15:22 PM 38.3990 -81.6060 269° West 345 397 38,000  Level FlightAware ADS-B
Fri 02:16:02 PM 38.3990 -81.6920 270° West 345 397 38,000  Level FlightAware ADS-B
Fri 02:16:47 PM 38.3990 -81.7800 270° West 344 396 38,000  Level FlightAware ADS-B
Fri 02:17:17 PM 38.3990 -81.8370 270° West 344 396 38,000  Level FlightAware ADS-B
Fri 02:17:42 PM 38.3900 -81.8890 258° West 323 372 38,000  Level FlightAware ADS-B
Fri 02:18:22 PM 38.3680 -81.9590 248° West 324 373 38,000  Level FlightAware ADS-B
Fri 02:19:07 PM 38.3440 -82.0380 249° West 325 374 38,000  Level FlightAware ADS-B
Fri 02:19:47 PM 38.3230 -82.1100 250° West 326 375 38,000  Level FlightAware ADS-B
Fri 02:20:27 PM 38.3010 -82.1830 249° West 326 375 38,000  Level FlightAware ADS-B
Fri 02:21:12 PM 38.2760 -82.2640 249° West 325 374 38,000  Level FlightAware ADS-B
Fri 02:21:52 PM 38.2550 -82.3340 249° West 325 374 38,000  Level FlightAware ADS-B
Fri 02:22:05 PM 38.2472 -82.3609 250° West 327 376 38,000  Level FlightAware ADS-B
Fri 02:22:39 PM 38.2281 -82.4225 248° West 328 377 38,000  Level FlightAware ADS-B
Fri 02:23:14 PM 38.2088 -82.4846 248° West 330 380 38,000  Level FlightAware ADS-B
Fri 02:23:57 PM 38.1860 -82.5580 248° West 329 379 38,000  Level FlightAware ADS-B
Fri 02:24:26 PM 38.1688 -82.6144 249° West 330 380 38,000  Level FlightAware ADS-B
Fri 02:25:09 PM 38.1453 -82.6907 249° West 326 375 38,000  Level FlightAware ADS-B
Fri 02:26:05 PM 38.1145 -82.7889 248° West 325 374 38,000  Level FlightAware ADS-B
Fri 02:26:42 PM 38.0950 -82.8520 249° West 325 374 38,000  Level FlightAware ADS-B
Fri 02:27:42 PM 38.0640 -82.9490 248° West 324 373 38,000  Level FlightAware ADS-B
Fri 02:28:22 PM 38.0450 -83.0090 248° West 324 373 38,000  Level FlightAware ADS-B
Fri 02:29:02 PM 38.0260 -83.0690 248° West 324 373 38,000  Level FlightAware ADS-B
Fri 02:29:42 PM 38.0000 -83.1530 249° West 312 359 38,000  Level FlightAware ADS-B
Fri 02:30:32 PM 37.9710 -83.2450 248° West 314 361 38,000  Level FlightAware ADS-B
Fri 02:31:32 PM 37.9380 -83.3500 248° West 314 361 38,000  Level FlightAware ADS-B
Fri 02:32:02 PM 37.9208 -83.4037 248° West 314 361 38,000  Level FlightAware ADS-B
Fri 02:32:39 PM 37.9008 -83.4667 248° West 315 362 38,000  Level FlightAware ADS-B
Fri 02:35:27 PM 37.8080 -83.7550 248° West 326 375 38,000  Level FlightAware ADS-B
Fri 02:36:07 PM 37.7860 -83.8230 248° West 327 376 38,000  Level FlightAware ADS-B
Fri 02:36:47 PM 37.7630 -83.8950 248° West 327 376 38,000  Level FlightAware ADS-B
Fri 02:37:22 PM 37.7430 -83.9560 247° West 329 379 38,000  Level FlightAware ADS-B
Fri 02:37:57 PM 37.7240 -84.0130 247° West 329 379 38,000  Level FlightAware ADS-B
Fri 02:38:37 PM 37.6990 -84.0910 248° West 330 380 38,000  Level FlightAware ADS-B
Fri 02:39:22 PM 37.6720 -84.1740 248° West 330 380 38,000  Level FlightAware ADS-B
Fri 02:40:02 PM 37.6490 -84.2440 247° West 330 380 38,000  Level FlightAware ADS-B
Fri 02:40:47 PM 37.6240 -84.3230 248° West 328 377 38,000  Level FlightAware ADS-B
Fri 02:41:27 PM 37.6010 -84.3910 247° West 329 379 38,000  Level FlightAware ADS-B
Fri 02:42:02 PM 37.5810 -84.4510 247° West 329 379 38,000  Level FlightAware ADS-B
Fri 02:42:52 PM 37.5560 -84.5270 247° West 329 379 38,000  Level FlightAware ADS-B
Fri 02:43:32 PM 37.5350 -84.5870 246° West 329 379 38,000  Level FlightAware ADS-B
Fri 02:44:17 PM 37.5000 -84.6950 248° West 330 380 38,000  Level FlightAware ADS-B
Fri 02:44:57 PM 37.4780 -84.7640 248° West 330 380 38,000  Level FlightAware ADS-B
Fri 02:45:37 PM 37.4530 -84.8360 246° West 332 382 38,000  Level FlightAware ADS-B
Fri 02:46:22 PM 37.4260 -84.9180 248° West 332 382 38,000  Level FlightAware ADS-B
Fri 02:46:36 PM 37.4164 -84.9459 247° West 333 383 38,000  Level FlightAware ADS-B
Fri 02:47:07 PM 37.3983 -84.9997 247° West 332 382 38,000  Level FlightAware ADS-B
Fri 02:47:37 PM 37.3801 -85.0538 247° West 333 383 38,000  Level FlightAware ADS-B
Fri 02:48:11 PM 37.3598 -85.1135 247° West 332 382 38,000  Level FlightAware ADS-B
Fri 02:48:41 PM 37.3417 -85.1671 247° West 332 382 38,000  Level FlightAware ADS-B
Fri 02:49:11 PM 37.3237 -85.2205 247° West 332 382 38,000  Level FlightAware ADS-B
Fri 02:49:49 PM 37.3011 -85.2873 247° West 332 382 38,000  Level FlightAware ADS-B
Fri 02:50:20 PM 37.2826 -85.3416 247° West 332 382 38,000  Level FlightAware ADS-B
Fri 02:50:50 PM 37.2643 -85.3949 247° West 332 382 38,000  Level FlightAware ADS-B
Fri 02:51:20 PM 37.2461 -85.4486 247° West 332 382 38,000  Level FlightAware ADS-B
Fri 02:51:50 PM 37.2278 -85.5019 247° West 334 384 38,000  Level FlightAware ADS-B
Fri 02:52:21 PM 37.2093 -85.5558 247° West 334 384 38,000  Level FlightAware ADS-B
Fri 02:52:51 PM 37.1910 -85.6095 247° West 336 387 38,000  Level FlightAware ADS-B
Fri 02:53:22 PM 37.1730 -85.6620 247° West 336 387 38,000  Level FlightAware ADS-B
Fri 02:53:34 PM 37.1646 -85.6863 247° West 337 388 38,000  Level FlightAware ADS-B
Fri 02:54:47 PM 37.1230 -85.8060 246° West 339 390 38,000  Level FlightAware ADS-B
Fri 02:54:58 PM 37.1120 -85.8386 247° West 339 390 38,000  Level FlightAware ADS-B
Fri 02:56:02 PM 37.0740 -85.9480 247° West 340 391 38,000  Level FlightAware ADS-B
Fri 02:56:52 PM 37.0410 -86.0420 246° West 341 392 38,000  Level FlightAware ADS-B
Fri 02:57:32 PM 37.0170 -86.1130 247° West 342 394 38,000  Level FlightAware ADS-B
Fri 02:58:07 PM 36.9950 -86.1730 245° Southwest 343 395 38,000  Level FlightAware ADS-B
Fri 02:58:43 PM 36.9702 -86.2450 247° West 345 397 38,000  Level FlightAware ADS-B
Fri 02:59:14 PM 36.9504 -86.3015 246° West 346 398 38,000  Level FlightAware ADS-B
Fri 02:59:44 PM 36.9311 -86.3566 246° West 347 399 38,000  Level FlightAware ADS-B
Fri 03:00:18 PM 36.9087 -86.4201 246° West 348 400 38,000  Level FlightAware ADS-B
Fri 03:00:48 PM 36.8893 -86.4752 246° West 346 398 38,000  Level FlightAware ADS-B
Fri 03:01:24 PM 36.8661 -86.5407 246° West 345 397 38,000  Level FlightAware ADS-B
Fri 03:01:55 PM 36.8466 -86.5955 246° West 344 396 38,000  Level FlightAware ADS-B
Fri 03:02:25 PM 36.8271 -86.6503 246° West 343 395 38,000  Level FlightAware ADS-B
Fri 03:03:03 PM 36.8027 -86.7188 246° West 342 394 38,000  Level FlightAware ADS-B
Fri 03:03:47 PM 36.7750 -86.7950 246° West 341 392 38,000  Level FlightAware ADS-B
Fri 03:04:37 PM 36.7430 -86.8860 246° West 341 392 38,000  Level FlightAware ADS-B
Fri 03:05:17 PM 36.7180 -86.9560 246° West 339 390 38,000  Level FlightAware ADS-B
Fri 03:05:57 PM 36.6920 -87.0280 246° West 337 388 38,000  Level FlightAware ADS-B
Fri 03:06:42 PM 36.6640 -87.1050 246° West 334 384 38,000  Level FlightAware ADS-B
Fri 03:07:22 PM 36.6390 -87.1760 246° West 334 384 38,000  Level FlightAware ADS-B
Fri 03:08:07 PM 36.6090 -87.2560 245° Southwest 335 386 38,000  Level FlightAware ADS-B
Fri 03:08:42 PM 36.5880 -87.3140 246° West 334 384 38,000  Level FlightAware ADS-B
Fri 03:09:22 PM 36.5640 -87.3820 246° West 336 387 38,000  Level FlightAware ADS-B
Fri 03:10:12 PM 36.5300 -87.4730 245° Southwest 337 388 38,000  Level FlightAware ADS-B
Fri 03:10:52 PM 36.5040 -87.5450 246° West 339 390 38,000  Level FlightAware ADS-B
Fri 03:11:32 PM 36.4780 -87.6160 246° West 341 392 38,000  Level FlightAware ADS-B
Fri 03:12:17 PM 36.4490 -87.6940 245° Southwest 343 395 38,000  Level FlightAware ADS-B
Fri 03:12:57 PM 36.4220 -87.7700 246° West 345 397 38,000  Level FlightAware ADS-B
Fri 03:13:42 PM 36.3920 -87.8490 245° Southwest 346 398 38,000  Level FlightAware ADS-B
Fri 03:14:22 PM 36.3660 -87.9200 246° West 347 399 38,000  Level FlightAware ADS-B
Fri 03:15:07 PM 36.3350 -88.0050 246° West 348 400 38,000  Level FlightAware ADS-B
Fri 03:15:47 PM 36.3070 -88.0780 245° Southwest 350 403 38,000  Level FlightAware ADS-B
Fri 03:16:22 PM 36.2860 -88.1350 245° Southwest 351 404 38,000  Level FlightAware ADS-B
Fri 03:17:07 PM 36.2560 -88.2160 245° Southwest 351 404 38,000  Level FlightAware ADS-B
Fri 03:17:47 PM 36.2330 -88.2780 245° Southwest 351 404 38,000  Level FlightAware ADS-B
Fri 03:18:27 PM 36.2090 -88.3400 244° Southwest 351 404 38,000  Level FlightAware ADS-B
Fri 03:19:17 PM 36.1800 -88.4170 245° Southwest 351 404 38,000  Level FlightAware ADS-B
Fri 03:19:57 PM 36.1570 -88.4790 245° Southwest 351 404 38,000  Level FlightAware ADS-B
Fri 03:20:37 PM 36.1340 -88.5410 245° Southwest 351 404 38,000  Level FlightAware ADS-B
Fri 03:21:17 PM 36.1100 -88.6030 244° Southwest 351 404 38,000  Level FlightAware ADS-B
Fri 03:22:07 PM 36.0810 -88.6800 245° Southwest 351 404 38,000  Level FlightAware ADS-B
Fri 03:22:47 PM 36.0580 -88.7420 245° Southwest 351 404 38,000  Level FlightAware ADS-B
Fri 03:23:27 PM 36.0340 -88.8040 244° Southwest 351 404 38,000  Level FlightAware ADS-B
Fri 03:24:07 PM 36.0110 -88.8660 245° Southwest 351 404 38,000  Level FlightAware ADS-B
Fri 03:24:47 PM 35.9880 -88.9280 245° Southwest 351 404 38,000  Level FlightAware ADS-B
Fri 03:25:37 PM 35.9590 -89.0050 245° Southwest 351 404 38,000  Level FlightAware ADS-B
Fri 03:26:17 PM 35.9350 -89.0670 244° Southwest 351 404 38,000  Level FlightAware ADS-B
Fri 03:27:05 PM 35.8372 -89.3072 244° Southwest 360 414 38,000  Level Memphis Center
Fri 03:28:05 PM 35.7922 -89.4178 243° Southwest 360 414 38,000  Level Memphis Center
Fri 03:29:05 PM 35.7492 -89.5308 245° Southwest 360 414 38,000  Level Memphis Center
Fri 03:30:05 PM 35.7061 -89.6411 244° Southwest 360 414 38,000  Level Memphis Center
Fri 03:31:05 PM 35.6692 -89.7514 248° West 360 414 38,000  Level Memphis Center
Fri 03:32:05 PM 35.6258 -89.8642 245° Southwest 365 420 38,000  Level Memphis Center
Fri 03:33:05 PM 35.5825 -89.9767 245° Southwest 365 420 38,000  Level Memphis Center
Fri 03:34:05 PM 35.5389 -90.0892 245° Southwest 365 420 38,000  Level Memphis Center
Fri 03:35:05 PM 35.4892 -90.2092 243° Southwest 360 414 38,000  Level Memphis Center
Fri 03:36:05 PM 35.4453 -90.3214 244° Southwest 360 414 38,000  Level Memphis Center
Fri 03:37:05 PM 35.3994 -90.4333 243° Southwest 360 414 38,000  Level Memphis Center
Fri 03:38:05 PM 35.3536 -90.5481 244° Southwest 360 414 38,000  Level Memphis Center
Fri 03:40:05 PM 35.2633 -90.7742 244° Southwest 365 420 38,000  Level Memphis Center
Fri 03:41:05 PM 35.2169 -90.8858 243° Southwest 365 420 38,000  Level Memphis Center
Fri 03:42:05 PM 35.1725 -90.9972 244° Southwest 365 420 38,000  Level Memphis Center
Fri 03:43:05 PM 35.1283 -91.1086 244° Southwest 365 420 38,000  Level Memphis Center
Fri 03:44:05 PM 35.0817 -91.2172 242° Southwest 365 420 38,000  Level Memphis Center
Fri 03:45:05 PM 35.0392 -91.3258 244° Southwest 365 420 38,000  Level Memphis Center
Fri 03:46:05 PM 34.9944 -91.4217 240° Southwest 365 420 38,000  Level Memphis Center
Fri 03:47:05 PM 34.9519 -91.5275 244° Southwest 365 420 38,000  Level Memphis Center
Fri 03:48:05 PM 34.9047 -91.6383 243° Southwest 365 420 38,000  Level Memphis Center
Fri 03:49:05 PM 34.8578 -91.7492 243° Southwest 365 420 38,000  Level Memphis Center
Fri 03:50:05 PM 34.8128 -91.8597 244° Southwest 365 420 38,000  Level Memphis Center
Fri 03:51:05 PM 34.7675 -91.9700 243° Southwest 365 420 38,000  Level Memphis Center
Fri 03:52:05 PM 34.7203 -92.0753 241° Southwest 365 420 38,000  Level Memphis Center
Fri 03:53:05 PM 34.6769 -92.1856 244° Southwest 365 420 38,000  Level Memphis Center
Fri 03:54:05 PM 34.6417 -92.3108 251° West 360 414 38,000  Level Memphis Center
Fri 03:55:05 PM 34.6125 -92.4289 253° West 360 414 38,000  Level Memphis Center
Fri 03:56:05 PM 34.5814 -92.5442 252° West 360 414 38,000  Level Memphis Center
Fri 03:57:05 PM 34.5500 -92.6594 252° West 360 414 38,000  Level Memphis Center
Fri 03:58:05 PM 34.5208 -92.7744 253° West 360 414 38,000  Level Memphis Center
Fri 03:59:05 PM 34.4894 -92.8894 252° West 360 414 38,000  Level Memphis Center
Fri 04:01:05 PM 34.4261 -93.1192 252° West 365 420 38,000  Level Memphis Center
Fri 04:02:05 PM 34.3942 -93.2392 252° West 365 420 38,000  Level Memphis Center
Fri 04:03:05 PM 34.3622 -93.3564 252° West 360 414 38,000  Level Memphis Center
Fri 04:03:51 PM 34.3461 -93.4369 256° West 361 415 38,000  Level Fort Worth Center
Fri 04:09:57 PM 34.1470 -94.1420 256° West 369 425 38,000  Level FlightAware ADS-B
Fri 04:10:37 PM 34.1260 -94.2150 251° West 369 425 38,000  Level FlightAware ADS-B
Fri 04:11:17 PM 34.1070 -94.2810 251° West 369 425 38,000  Level FlightAware ADS-B
Fri 04:11:57 PM 34.0880 -94.3480 251° West 369 425 38,000  Level FlightAware ADS-B
Fri 04:12:47 PM 34.0640 -94.4300 251° West 369 425 38,000  Level FlightAware ADS-B
Fri 04:13:27 PM 34.0460 -94.4970 252° West 369 425 38,000  Level FlightAware ADS-B
Fri 04:14:07 PM 34.0090 -94.6280 251° West 367 422 38,000  Level FlightAware ADS-B
Fri 04:14:47 PM 33.9860 -94.7090 251° West 366 421 38,000  Level FlightAware ADS-B
Fri 04:15:47 PM 33.9560 -94.8120 251° West 366 421 38,000  Level FlightAware ADS-B
Fri 04:16:27 PM 33.9320 -94.8980 251° West 364 419 38,000  Level FlightAware ADS-B
Fri 04:17:12 PM 33.9060 -94.9850 250° West 364 419 38,000  Level FlightAware ADS-B
Fri 04:17:52 PM 33.8840 -95.0610 251° West 364 419 38,000  Level FlightAware ADS-B
Fri 04:18:37 PM 33.8600 -95.1440 251° West 364 419 38,000  Level FlightAware ADS-B
Fri 04:19:17 PM 33.8370 -95.2220 250° West 364 419 38,000  Level FlightAware ADS-B
Fri 04:19:57 PM 33.8090 -95.2980 246° West 365 420 38,000 -353 Level FlightAware ADS-B
Fri 04:20:42 PM 33.7780 -95.3810 246° West 360 414 37,500 -1,624 Descending FlightAware ADS-B
Fri 04:21:22 PM 33.7510 -95.4560 247° West 364 419 35,700 -2,850 Descending FlightAware ADS-B
Fri 04:22:02 PM 33.7240 -95.5290 246° West 375 432 33,700 -3,035 Descending FlightAware ADS-B
Fri 04:22:47 PM 33.6930 -95.6140 246° West 381 438 31,400 -2,965 Descending FlightAware ADS-B
Fri 04:23:27 PM 33.6620 -95.6960 246° West 377 434 29,500 -2,612 Descending FlightAware ADS-B
Fri 04:24:12 PM 33.6320 -95.7790 247° West 371 427 27,700 -2,329 Descending FlightAware ADS-B
Fri 04:24:52 PM 33.6040 -95.8540 246° West 366 421 26,200 -2,325 Descending FlightAware ADS-B
Fri 04:25:32 PM 33.5770 -95.9270 246° West 368 423 24,600 -2,400 Descending FlightAware ADS-B
Fri 04:26:17 PM 33.5450 -96.0120 246° West 366 421 22,800 -2,329 Descending FlightAware ADS-B
Fri 04:26:57 PM 33.5180 -96.0840 246° West 362 417 21,300 -2,259 Descending FlightAware ADS-B
Fri 04:27:42 PM 33.4870 -96.1670 246° West 355 409 19,600 -2,329 Descending FlightAware ADS-B
Fri 04:28:22 PM 33.4600 -96.2390 246° West 349 402 18,000 -2,329 Descending FlightAware ADS-B
Fri 04:29:07 PM 33.4300 -96.3160 245° Southwest 347 399 16,300 -2,259 Descending FlightAware ADS-B
Fri 04:29:47 PM 33.4040 -96.3850 246° West 344 396 14,800 -1,650 Descending FlightAware ADS-B
Fri 04:30:27 PM 33.3630 -96.4420 229° Southwest 342 394 14,100 -1,271 Descending FlightAware ADS-B
Fri 04:31:12 PM 33.3120 -96.5030 225° Southwest 336 387 13,000 -1,341 Descending FlightAware ADS-B
Fri 04:31:52 PM 33.2690 -96.5530 224° Southwest 318 366 12,200 -1,271 Descending FlightAware ADS-B
Fri 04:32:37 PM 33.2230 -96.6090 226° Southwest 301 346 11,200 -1,059 Descending FlightAware ADS-B
Fri 04:33:17 PM 33.1850 -96.6530 224° Southwest 294 338 10,700 -375 Descending FlightAware ADS-B
Fri 04:33:57 PM 33.1460 -96.6990 225° Southwest 292 336 10,700  Level FlightAware ADS-B
Fri 04:34:42 PM 33.1030 -96.7500 225° Southwest 289 333 10,700  Level FlightAware ADS-B
Fri 04:35:22 PM 33.0640 -96.7950 224° Southwest 292 336 10,700  Level FlightAware ADS-B
Fri 04:36:07 PM 33.0210 -96.8460 225° Southwest 293 337 10,700  Level FlightAware ADS-B
Fri 04:36:47 PM 32.9850 -96.8890 225° Southwest 278 320 10,700  Level FlightAware ADS-B
Fri 04:37:02 PM 32.9700 -96.9000 212° Southwest 275 316 10,700 -200 Level FlightAware ADS-B
Fri 04:37:17 PM 32.9480 -96.9030 187° South 270 311 10,600 -1,200 Descending FlightAware ADS-B
Fri 04:37:42 PM 32.9200 -96.9040 182° South 267 307 9,900 -1,964 Descending FlightAware ADS-B
Fri 04:38:12 PM 32.8770 -96.9050 181° South 271 312 8,800 -1,855 Descending FlightAware ADS-B
Fri 04:38:37 PM 32.8480 -96.9060 182° South 267 307 8,200 -1,527 Descending FlightAware ADS-B
Fri 04:39:07 PM 32.8130 -96.9060 180° South 265 305 7,400 -1,636 Descending FlightAware ADS-B
Fri 04:39:32 PM 32.7830 -96.9070 182° South 261 300 6,700 -1,527 Descending FlightAware ADS-B
Fri 04:40:02 PM 32.7440 -96.9090 182° South 254 292 6,000 -1,333 Descending FlightAware ADS-B
Fri 04:40:17 PM 32.7310 -96.9170 207° Southwest 235 270 5,700 -1,200 Descending FlightAware ADS-B
Fri 04:40:32 PM 32.7220 -96.9340 238° Southwest 211 243 5,400 -1,200 Descending FlightAware ADS-B
Fri 04:40:57 PM 32.7180 -96.9600 260° West 193 222 4,900 -1,527 Descending FlightAware ADS-B
Fri 04:41:27 PM 32.7250 -96.9880 287° West 180 207 4,000 -2,000 Descending FlightAware ADS-B
Fri 04:41:42 PM 32.7290 -97.0010 290° West 185 213 3,400 -1,350 Descending FlightAware ADS-B
Fri 04:42:07 PM 32.7420 -97.0210 308° West 163 188 3,100 -750 Descending FlightAware ADS-B
Fri 04:42:22 PM 32.7510 -97.0250 340° North 150 173 2,900 -900 Descending FlightAware ADS-B
Fri 04:42:47 PM 32.7670 -97.0270 354° North 144 166 2,500 -800 Descending FlightAware ADS-B
Fri 04:43:07 PM 32.7740 -97.0260 North 138 159 2,300 -720 Descending FlightAware ADS-B
Fri 04:43:12 PM 32.7830 -97.0260 360° North 145 167 2,200 -400 Descending FlightAware ADS-B
Fri 04:43:52 PM 32.8090 -97.0250 North 145 167 2,000 -533 Descending FlightAware ADS-B
Fri 04:44:42 PM 32.7670 -97.0270 182° South 145 167 1,400 -720 Descending FlightAware ADS-B

Login

Don't have an account? Register now (free) for customized features, flight alerts, and more!